Time;durP1;ratioP1;P1;durP2;ratioP2;P2;SDS_P1;SDS_P2;PMS_P1;PMS_P2;Temp;Humidity;BMP_temperature;BMP_pressure;BME280_temperature;BME280_humidity;BME280_pressure;Samples;Min_cycle;Max_cycle;Signal;HPM_P1;HPM_P2
2021/08/27 00:01:26;;;;;;;4.00;1.73;;;;;;;;;;5111530;28;20477;-58
2021/08/27 00:03:51;;;;;;;3.92;2.00;;;;;;;;;;5112511;28;20100;-56
2021/08/27 00:06:17;;;;;;;1.98;1.73;;;;;;;;;;5112272;28;20023;-59
2021/08/27 00:08:42;;;;;;;3.47;2.25;;;;;;;;;;5112492;28;20036;-56
2021/08/27 00:11:07;;;;;;;2.78;2.47;;;;;;;;;;5111881;28;20019;-57
2021/08/27 00:13:33;;;;;;;3.40;2.38;;;;;;;;;;5111364;28;20078;-57
2021/08/27 00:15:58;;;;;;;5.15;2.25;;;;;;;;;;5111728;28;20039;-58
2021/08/27 00:18:23;;;;;;;3.78;2.42;;;;;;;;;;5112098;28;20023;-58
2021/08/27 00:20:48;;;;;;;5.80;2.60;;;;;;;;;;5112286;28;20027;-58
2021/08/27 00:23:14;;;;;;;2.65;1.67;;;;;;;;;;5112003;28;20020;-59
2021/08/27 00:25:39;;;;;;;6.03;2.40;;;;;;;;;;5112121;28;20023;-59
2021/08/27 00:28:05;;;;;;;3.92;2.40;;;;;;;;;;5111449;28;20055;-57
2021/08/27 00:30:31;;;;;;;2.88;2.17;;;;;;;;;;5111212;28;20038;-57
2021/08/27 00:32:56;;;;;;;5.60;2.95;;;;;;;;;;5112248;28;20023;-57
2021/08/27 00:35:21;;;;;;;11.43;3.58;;;;;;;;;;5113877;28;20019;-58
2021/08/27 00:37:47;;;;;;;2.75;2.53;;;;;;;;;;5115465;28;20530;-57
2021/08/27 00:40:12;;;;;;;4.30;1.73;;;;;;;;;;5115487;28;20051;-58
2021/08/27 00:42:37;;;;;;;2.25;1.85;;;;;;;;;;5115865;28;20012;-58
2021/08/27 00:45:02;;;;;;;4.72;2.17;;;;;;;;;;5115664;28;20022;-57
2021/08/27 00:47:28;;;;;;;3.90;1.85;;;;;;;;;;5115061;28;20026;-58
2021/08/27 00:49:53;;;;;;;2.33;1.88;;;;;;;;;;5115549;28;20019;-58
2021/08/27 00:52:18;;;;;;;3.55;2.35;;;;;;;;;;5115936;28;20055;-57
2021/08/27 00:54:50;;;;;;;3.90;2.20;;;;;;;;;;5115582;28;20363;-59
2021/08/27 00:57:15;;;;;;;3.63;2.00;;;;;;;;;;5115394;28;20470;-57
2021/08/27 00:59:41;;;;;;;4.85;2.22;;;;;;;;;;5115438;28;20026;-59
2021/08/27 01:02:06;;;;;;;6.10;2.40;;;;;;;;;;5115174;28;20019;-58
2021/08/27 01:04:32;;;;;;;3.13;1.60;;;;;;;;;;5115912;28;20019;-58
2021/08/27 01:07:01;;;;;;;1.95;1.30;;;;;;;;;;5115693;28;20374;-57
2021/08/27 01:09:39;;;;;;;1.98;1.38;;;;;;;;;;5115227;28;20028;-58
2021/08/27 01:12:10;;;;;;;3.42;2.13;;;;;;;;;;5114937;28;20034;-58
2021/08/27 01:14:37;;;;;;;3.47;1.90;;;;;;;;;;5104879;28;20028;-56
2021/08/27 01:17:07;;;;;;;3.42;1.80;;;;;;;;;;5114950;28;20270;-58
2021/08/27 01:19:51;;;;;;;7.18;2.28;;;;;;;;;;5115166;28;20054;-58
2021/08/27 01:22:16;;;;;;;3.08;1.67;;;;;;;;;;5115165;28;20059;-57
2021/08/27 01:24:43;;;;;;;4.13;1.53;;;;;;;;;;5115321;28;20098;-57
2021/08/27 01:27:10;;;;;;;2.65;0.73;;;;;;;;;;5114945;28;20301;-57
2021/08/27 01:29:41;;;;;;;5.05;1.05;;;;;;;;;;5114595;28;20031;-56
2021/08/27 01:32:09;;;;;;;2.67;2.03;;;;;;;;;;5114630;28;20016;-58
2021/08/27 01:34:35;;;;;;;4.55;1.70;;;;;;;;;;5115222;28;20023;-58
2021/08/27 01:37:00;;;;;;;4.35;1.42;;;;;;;;;;5114682;28;20016;-58
2021/08/27 01:39:30;;;;;;;2.17;1.55;;;;;;;;;;5114807;28;20494;-58
2021/08/27 01:41:56;;;;;;;3.33;2.08;;;;;;;;;;5114744;28;20035;-58
2021/08/27 01:44:23;;;;;;;3.30;2.58;;;;;;;;;;5115276;28;20026;-59
2021/08/27 01:46:50;;;;;;;3.88;2.28;;;;;;;;;;5114019;28;20023;-58
2021/08/27 01:49:15;;;;;;;5.25;3.38;;;;;;;;;;5114705;28;20023;-58
2021/08/27 01:51:43;;;;;;;5.18;2.67;;;;;;;;;;5114519;28;20019;-58
2021/08/27 01:54:09;;;;;;;5.07;2.97;;;;;;;;;;5114846;28;20373;-58
2021/08/27 01:56:37;;;;;;;3.33;2.42;;;;;;;;;;5114801;28;20012;-57
2021/08/27 01:59:03;;;;;;;2.15;1.27;;;;;;;;;;5114664;28;20131;-56
2021/08/27 02:01:29;;;;;;;2.83;2.20;;;;;;;;;;5114279;28;20035;-58
2021/08/27 02:03:55;;;;;;;3.47;3.05;;;;;;;;;;5114491;27;20023;-55
2021/08/27 02:06:21;;;;;;;3.97;3.17;;;;;;;;;;5114883;28;20381;-58
2021/08/27 02:08:47;;;;;;;5.82;2.58;;;;;;;;;;5114230;28;20019;-57
2021/08/27 02:11:12;;;;;;;4.50;1.77;;;;;;;;;;5113994;28;20024;-58
2021/08/27 02:13:38;;;;;;;2.63;2.10;;;;;;;;;;5114428;28;20020;-59
2021/08/27 02:16:06;;;;;;;2.42;2.20;;;;;;;;;;5114044;28;20058;-58
2021/08/27 02:18:31;;;;;;;2.03;1.75;;;;;;;;;;5125191;27;20034;-58
2021/08/27 02:20:56;;;;;;;3.22;2.97;;;;;;;;;;5134671;27;20019;-58
2021/08/27 02:23:23;;;;;;;3.25;2.50;;;;;;;;;;5113645;28;20040;-59
2021/08/27 02:25:50;;;;;;;4.13;1.95;;;;;;;;;;5114156;28;20027;-56
2021/08/27 02:28:17;;;;;;;2.78;1.40;;;;;;;;;;5113627;28;20181;-58
2021/08/27 02:30:43;;;;;;;4.75;2.30;;;;;;;;;;5113326;27;20061;-56
2021/08/27 02:33:09;;;;;;;2.58;2.38;;;;;;;;;;5113537;28;20066;-58
2021/08/27 02:35:35;;;;;;;3.85;2.80;;;;;;;;;;5113841;28;20023;-58
2021/08/27 02:38:00;;;;;;;4.90;3.58;;;;;;;;;;5113624;28;20458;-58
2021/08/27 02:40:26;;;;;;;5.22;3.53;;;;;;;;;;5113482;28;20023;-59
2021/08/27 02:42:51;;;;;;;4.65;3.42;;;;;;;;;;5114102;28;20020;-59
2021/08/27 02:45:16;;;;;;;5.13;3.40;;;;;;;;;;5112346;28;20040;-58
2021/08/27 02:47:42;;;;;;;8.68;5.28;;;;;;;;;;5113290;28;20012;-59
2021/08/27 02:50:07;;;;;;;6.63;4.90;;;;;;;;;;5113439;28;20081;-57
2021/08/27 02:52:54;;;;;;;5.30;4.18;;;;;;;;;;5113312;28;20024;-58
2021/08/27 02:55:21;;;;;;;3.58;3.22;;;;;;;;;;5113243;28;20045;-58
2021/08/27 02:57:52;;;;;;;5.13;3.13;;;;;;;;;;5112417;28;20008;-58
2021/08/27 03:00:18;;;;;;;3.88;1.95;;;;;;;;;;5113003;28;20020;-58
2021/08/27 03:02:45;;;;;;;4.75;3.42;;;;;;;;;;5113149;28;20110;-57
2021/08/27 03:05:16;;;;;;;7.10;3.45;;;;;;;;;;5113408;28;20012;-57
2021/08/27 03:07:46;;;;;;;3.20;2.78;;;;;;;;;;5113221;28;20019;-58
2021/08/27 03:10:29;;;;;;;4.72;3.17;;;;;;;;;;5092561;28;20024;-58
2021/08/27 03:13:07;;;;;;;4.82;2.35;;;;;;;;;;5095732;27;20073;-57
2021/08/27 03:15:37;;;;;;;4.50;3.35;;;;;;;;;;5112765;28;20016;-58
2021/08/27 03:18:05;;;;;;;4.68;3.80;;;;;;;;;;5112932;28;20102;-59
2021/08/27 03:20:39;;;;;;;3.55;3.25;;;;;;;;;;5113022;28;20102;-58
2021/08/27 03:23:07;;;;;;;4.90;4.50;;;;;;;;;;5132783;27;20022;-58
2021/08/27 03:25:36;;;;;;;4.38;3.22;;;;;;;;;;5121433;27;20023;-58
2021/08/27 03:28:03;;;;;;;3.47;3.17;;;;;;;;;;5107638;28;20032;-58
2021/08/27 03:30:30;;;;;;;4.22;3.38;;;;;;;;;;5112405;28;20024;-58
2021/08/27 03:32:58;;;;;;;5.60;2.50;;;;;;;;;;5112860;28;20481;-59
2021/08/27 03:35:23;;;;;;;4.03;3.67;;;;;;;;;;5112528;28;20602;-58
2021/08/27 03:37:50;;;;;;;3.67;3.08;;;;;;;;;;5112595;28;20020;-58
2021/08/27 03:40:15;;;;;;;2.78;2.47;;;;;;;;;;5112085;28;20068;-59
2021/08/27 03:42:41;;;;;;;4.00;3.15;;;;;;;;;;5112749;28;20374;-58
2021/08/27 03:45:07;;;;;;;4.43;3.88;;;;;;;;;;5112572;28;20027;-59
2021/08/27 03:47:33;;;;;;;7.78;4.78;;;;;;;;;;5112436;28;20408;-59
2021/08/27 03:49:58;;;;;;;6.07;5.45;;;;;;;;;;5112467;28;20023;-58
2021/08/27 03:52:24;;;;;;;6.82;4.68;;;;;;;;;;5112403;28;20103;-57
2021/08/27 03:54:49;;;;;;;6.70;4.70;;;;;;;;;;5098826;28;20019;-59
2021/08/27 03:57:16;;;;;;;6.28;5.13;;;;;;;;;;5113270;28;20008;-58
2021/08/27 03:59:41;;;;;;;5.93;4.70;;;;;;;;;;5112254;28;20015;-57
2021/08/27 04:02:09;;;;;;;4.55;3.65;;;;;;;;;;5111933;28;20019;-58
2021/08/27 04:04:35;;;;;;;5.40;3.90;;;;;;;;;;5092213;28;20024;-58
2021/08/27 04:07:01;;;;;;;4.60;3.67;;;;;;;;;;5092097;28;20024;-58
2021/08/27 04:09:27;;;;;;;6.60;4.38;;;;;;;;;;5106558;28;20030;-59
2021/08/27 04:11:52;;;;;;;5.32;4.72;;;;;;;;;;5111870;28;20020;-58
2021/08/27 04:14:17;;;;;;;3.42;2.95;;;;;;;;;;5112516;28;20023;-58
2021/08/27 04:16:43;;;;;;;5.10;3.85;;;;;;;;;;5111999;28;20066;-57
2021/08/27 04:19:08;;;;;;;2.25;1.10;;;;;;;;;;5112333;28;20019;-58
2021/08/27 04:21:34;;;;;;;5.47;3.33;;;;;;;;;;5112017;28;20161;-59
2021/08/27 04:23:59;;;;;;;4.00;2.72;;;;;;;;;;5112145;28;20031;-57
2021/08/27 04:26:24;;;;;;;3.05;2.72;;;;;;;;;;5111969;28;20034;-57
2021/08/27 04:28:49;;;;;;;3.58;2.17;;;;;;;;;;5111860;28;20044;-57
2021/08/27 04:31:14;;;;;;;4.22;3.83;;;;;;;;;;5111501;28;20092;-58
2021/08/27 04:33:40;;;;;;;5.72;4.63;;;;;;;;;;5111949;28;20024;-58
2021/08/27 04:36:05;;;;;;;5.55;4.43;;;;;;;;;;5112003;28;20023;-59
2021/08/27 04:38:30;;;;;;;5.25;3.42;;;;;;;;;;5111603;28;20027;-58
2021/08/27 04:40:55;;;;;;;3.70;3.40;;;;;;;;;;5111490;28;20030;-59
2021/08/27 04:43:20;;;;;;;5.53;4.35;;;;;;;;;;5112039;28;20027;-58
2021/08/27 04:45:46;;;;;;;4.28;3.63;;;;;;;;;;5111647;28;20059;-58
2021/08/27 04:48:11;;;;;;;5.38;4.93;;;;;;;;;;5111871;28;20031;-58
2021/08/27 04:50:36;;;;;;;7.72;4.80;;;;;;;;;;5110854;28;20118;-58
2021/08/27 04:53:01;;;;;;;7.57;4.40;;;;;;;;;;5112159;28;20020;-57
2021/08/27 04:55:27;;;;;;;5.40;4.93;;;;;;;;;;5111098;28;20111;-58
2021/08/27 04:57:52;;;;;;;5.00;3.75;;;;;;;;;;5111955;28;20466;-58
2021/08/27 05:00:17;;;;;;;5.20;4.70;;;;;;;;;;5109643;28;20046;-59
2021/08/27 05:02:42;;;;;;;4.65;4.25;;;;;;;;;;5110376;28;20079;-57
2021/08/27 05:05:08;;;;;;;3.60;3.30;;;;;;;;;;5111784;28;20685;-57
2021/08/27 05:07:33;;;;;;;4.28;3.95;;;;;;;;;;5111770;28;20046;-58
2021/08/27 05:09:58;;;;;;;4.55;3.70;;;;;;;;;;5109882;28;20482;-57
2021/08/27 05:12:24;;;;;;;3.70;3.40;;;;;;;;;;5110628;28;20370;-56
2021/08/27 05:14:49;;;;;;;3.38;3.00;;;;;;;;;;5111532;28;20378;-58
2021/08/27 05:17:14;;;;;;;3.47;2.90;;;;;;;;;;5110844;28;20382;-59
2021/08/27 05:19:39;;;;;;;4.40;3.97;;;;;;;;;;5111634;28;20015;-57
2021/08/27 05:22:04;;;;;;;4.93;3.85;;;;;;;;;;5114268;28;20468;-57
2021/08/27 05:24:30;;;;;;;4.63;3.53;;;;;;;;;;5115046;28;20474;-58
2021/08/27 05:26:55;;;;;;;4.63;3.90;;;;;;;;;;5115190;28;20361;-59
2021/08/27 05:29:20;;;;;;;4.82;4.20;;;;;;;;;;5114939;28;20047;-57
2021/08/27 05:31:45;;;;;;;4.65;3.72;;;;;;;;;;5110810;28;20035;-59
2021/08/27 05:34:11;;;;;;;5.63;3.35;;;;;;;;;;5115074;28;20015;-59
2021/08/27 05:36:36;;;;;;;5.35;3.90;;;;;;;;;;5114793;28;20012;-58
2021/08/27 05:39:02;;;;;;;5.20;3.83;;;;;;;;;;5114768;28;20363;-58
2021/08/27 05:41:27;;;;;;;5.88;4.85;;;;;;;;;;5113921;28;20482;-59
2021/08/27 05:43:52;;;;;;;5.28;3.63;;;;;;;;;;5114819;28;20034;-60
2021/08/27 05:46:18;;;;;;;4.50;3.42;;;;;;;;;;5113854;28;20020;-58
2021/08/27 05:48:43;;;;;;;5.45;4.78;;;;;;;;;;5110295;28;20023;-58
2021/08/27 05:51:08;;;;;;;3.03;2.70;;;;;;;;;;5114321;28;20015;-56
2021/08/27 05:53:34;;;;;;;5.68;3.42;;;;;;;;;;5114686;28;20031;-56
2021/08/27 05:55:59;;;;;;;4.65;4.20;;;;;;;;;;5114661;28;20042;-57
2021/08/27 05:58:24;;;;;;;4.43;3.42;;;;;;;;;;5114595;28;20016;-56
2021/08/27 06:00:50;;;;;;;2.95;2.65;;;;;;;;;;5113024;28;20389;-57
2021/08/27 06:03:15;;;;;;;2.15;1.48;;;;;;;;;;5109274;28;20019;-57
2021/08/27 06:05:41;;;;;;;4.97;3.40;;;;;;;;;;5105408;28;20069;-56
2021/08/27 06:08:06;;;;;;;2.75;2.25;;;;;;;;;;5100597;28;20012;-58
2021/08/27 06:10:31;;;;;;;1.73;1.33;;;;;;;;;;5113867;28;20132;-56
2021/08/27 06:12:56;;;;;;;2.17;1.75;;;;;;;;;;5114264;28;20016;-57
2021/08/27 06:15:22;;;;;;;3.40;1.75;;;;;;;;;;5114061;28;20378;-57
2021/08/27 06:17:47;;;;;;;3.17;2.35;;;;;;;;;;5113481;28;20024;-57
2021/08/27 06:20:12;;;;;;;4.95;2.78;;;;;;;;;;5113620;28;20359;-56
2021/08/27 06:22:37;;;;;;;2.35;2.15;;;;;;;;;;5113947;28;20099;-56
2021/08/27 06:25:03;;;;;;;1.20;1.10;;;;;;;;;;5113752;28;20023;-56
2021/08/27 06:27:28;;;;;;;3.25;2.35;;;;;;;;;;5095563;28;20056;-58
2021/08/27 06:29:55;;;;;;;7.35;3.20;;;;;;;;;;5114123;28;20071;-57
2021/08/27 06:32:20;;;;;;;2.85;2.63;;;;;;;;;;5112447;28;20055;-58
2021/08/27 06:34:46;;;;;;;3.72;1.58;;;;;;;;;;5109651;28;20027;-59
2021/08/27 06:37:11;;;;;;;4.47;2.72;;;;;;;;;;5114148;28;20069;-58
2021/08/27 06:39:36;;;;;;;3.63;3.30;;;;;;;;;;5124369;27;20491;-56
2021/08/27 06:42:02;;;;;;;2.22;2.05;;;;;;;;;;5112773;28;20247;-56
2021/08/27 06:44:27;;;;;;;2.97;2.75;;;;;;;;;;5113714;28;20034;-59
2021/08/27 06:46:53;;;;;;;5.32;3.03;;;;;;;;;;5113230;28;20163;-58
2021/08/27 06:49:18;;;;;;;4.03;1.85;;;;;;;;;;5114032;28;20023;-58
2021/08/27 06:51:43;;;;;;;2.88;2.67;;;;;;;;;;5113135;28;20460;-56
2021/08/27 06:54:09;;;;;;;3.40;3.10;;;;;;;;;;5113851;28;20023;-56
2021/08/27 06:56:34;;;;;;;3.40;2.42;;;;;;;;;;5113209;28;20072;-58
2021/08/27 06:59:00;;;;;;;5.82;3.78;;;;;;;;;;5112940;28;20374;-57
2021/08/27 07:01:25;;;;;;;5.15;3.67;;;;;;;;;;5112681;28;20028;-57
2021/08/27 07:03:50;;;;;;;4.68;3.53;;;;;;;;;;5113476;28;20447;-58
2021/08/27 07:06:16;;;;;;;4.65;3.38;;;;;;;;;;5112968;28;20027;-57
2021/08/27 07:08:41;;;;;;;5.28;4.18;;;;;;;;;;5088167;28;20027;-57
2021/08/27 07:11:06;;;;;;;2.80;2.55;;;;;;;;;;5112110;28;20024;-58
2021/08/27 07:13:32;;;;;;;2.72;2.20;;;;;;;;;;5112942;28;20016;-57
2021/08/27 07:15:57;;;;;;;2.30;1.15;;;;;;;;;;5112501;28;20026;-59
2021/08/27 07:18:23;;;;;;;2.92;2.33;;;;;;;;;;5112841;28;20043;-58
2021/08/27 07:20:48;;;;;;;4.20;2.70;;;;;;;;;;5112957;28;20440;-57
2021/08/27 07:23:14;;;;;;;3.25;2.10;;;;;;;;;;5112808;28;20024;-57
2021/08/27 07:25:39;;;;;;;2.67;1.65;;;;;;;;;;5112804;28;20053;-58
2021/08/27 07:28:04;;;;;;;4.05;2.15;;;;;;;;;;5112408;28;20105;-56
2021/08/27 07:30:30;;;;;;;2.58;1.48;;;;;;;;;;5112599;28;20084;-56
2021/08/27 07:32:55;;;;;;;2.22;1.50;;;;;;;;;;5112617;28;20023;-57
2021/08/27 07:35:20;;;;;;;4.28;2.17;;;;;;;;;;5112735;28;20061;-58
2021/08/27 07:37:45;;;;;;;3.40;1.90;;;;;;;;;;5109512;28;20373;-58
2021/08/27 07:40:13;;;;;;;3.78;1.23;;;;;;;;;;5112356;28;20016;-57
2021/08/27 07:42:38;;;;;;;4.30;1.75;;;;;;;;;;5112371;28;20027;-57
2021/08/27 07:45:04;;;;;;;1.92;1.40;;;;;;;;;;5112351;28;20023;-59
2021/08/27 07:47:29;;;;;;;4.90;1.58;;;;;;;;;;5112231;28;20035;-59
2021/08/27 07:49:54;;;;;;;3.40;1.17;;;;;;;;;;5112650;28;20016;-58
2021/08/27 07:52:20;;;;;;;2.30;1.00;;;;;;;;;;5112146;28;20020;-55
2021/08/27 07:54:45;;;;;;;1.83;1.08;;;;;;;;;;5111977;28;20035;-57
2021/08/27 07:57:10;;;;;;;2.90;1.00;;;;;;;;;;5112342;28;20098;-56
2021/08/27 07:59:35;;;;;;;2.10;1.05;;;;;;;;;;5111573;28;20060;-57
2021/08/27 08:02:01;;;;;;;1.92;1.10;;;;;;;;;;5111879;28;20077;-56
2021/08/27 08:04:26;;;;;;;2.13;1.30;;;;;;;;;;5112424;28;20035;-58
2021/08/27 08:06:51;;;;;;;2.65;1.20;;;;;;;;;;5112756;28;20434;-58
2021/08/27 08:09:16;;;;;;;3.75;1.23;;;;;;;;;;5111457;28;20111;-55
2021/08/27 08:11:41;;;;;;;3.80;1.00;;;;;;;;;;5111863;28;20024;-57
2021/08/27 08:14:07;;;;;;;3.30;1.58;;;;;;;;;;5112252;28;20061;-57
2021/08/27 08:16:32;;;;;;;2.90;1.15;;;;;;;;;;5111077;28;20016;-57
2021/08/27 08:18:57;;;;;;;3.28;1.45;;;;;;;;;;5112015;28;20030;-56
2021/08/27 08:21:23;;;;;;;2.70;1.33;;;;;;;;;;5111976;28;20137;-58
2021/08/27 08:23:51;;;;;;;2.90;1.23;;;;;;;;;;5112833;28;20462;-55
2021/08/27 08:26:18;;;;;;;2.95;1.60;;;;;;;;;;5111896;28;20073;-56
2021/08/27 08:28:43;;;;;;;4.00;1.70;;;;;;;;;;5111472;28;20483;-59
2021/08/27 08:31:08;;;;;;;2.72;1.63;;;;;;;;;;5111359;28;20023;-59
2021/08/27 08:33:34;;;;;;;1.08;0.85;;;;;;;;;;5111964;28;20036;-56
2021/08/27 08:35:59;;;;;;;1.45;0.80;;;;;;;;;;5111823;28;20011;-56
2021/08/27 08:38:25;;;;;;;2.47;1.05;;;;;;;;;;5111584;28;20023;-57
2021/08/27 08:40:50;;;;;;;2.03;0.80;;;;;;;;;;5110872;28;20326;-56
2021/08/27 08:43:16;;;;;;;1.40;0.55;;;;;;;;;;5110798;28;20098;-57
2021/08/27 08:45:48;;;;;;;3.47;1.02;;;;;;;;;;5110654;28;20139;-56
2021/08/27 08:48:17;;;;;;;1.98;0.75;;;;;;;;;;5111145;28;20034;-58
2021/08/27 08:50:43;;;;;;;1.98;0.80;;;;;;;;;;5110996;28;20089;-56
2021/08/27 08:53:09;;;;;;;1.92;0.75;;;;;;;;;;5111081;28;20346;-58
2021/08/27 08:55:36;;;;;;;1.85;0.70;;;;;;;;;;5111542;28;20327;-56
2021/08/27 08:58:03;;;;;;;2.85;0.43;;;;;;;;;;5115062;28;20159;-55
2021/08/27 09:00:28;;;;;;;2.92;0.65;;;;;;;;;;5097431;28;20028;-57
2021/08/27 09:02:53;;;;;;;1.08;0.55;;;;;;;;;;5115460;28;20080;-58
2021/08/27 09:05:18;;;;;;;3.63;0.77;;;;;;;;;;5115548;28;20012;-60
2021/08/27 09:07:44;;;;;;;0.73;0.47;;;;;;;;;;5115072;28;20378;-56
2021/08/27 09:10:15;;;;;;;1.33;0.70;;;;;;;;;;5115250;28;20072;-56
2021/08/27 09:12:40;;;;;;;2.25;0.68;;;;;;;;;;5114565;28;20470;-57
2021/08/27 09:15:07;;;;;;;1.70;1.02;;;;;;;;;;5114661;28;20076;-57
2021/08/27 09:17:35;;;;;;;0.65;0.52;;;;;;;;;;5114314;28;20034;-58
2021/08/27 09:20:04;;;;;;;2.95;0.60;;;;;;;;;;5115238;28;20042;-55
2021/08/27 09:22:43;;;;;;;0.80;0.65;;;;;;;;;;5114794;28;20020;-58
2021/08/27 09:25:08;;;;;;;1.42;0.70;;;;;;;;;;5115262;28;20034;-57
2021/08/27 09:27:37;;;;;;;2.17;0.63;;;;;;;;;;5115433;28;20502;-58
2021/08/27 09:30:10;;;;;;;1.60;0.63;;;;;;;;;;5115275;28;20444;-56
2021/08/27 09:32:35;;;;;;;2.45;0.60;;;;;;;;;;5114369;28;20023;-58
2021/08/27 09:35:01;;;;;;;0.93;0.47;;;;;;;;;;5123098;27;20019;-58
2021/08/27 09:37:40;;;;;;;2.10;1.10;;;;;;;;;;5115416;27;20015;-57
2021/08/27 09:40:07;;;;;;;2.05;0.80;;;;;;;;;;5103827;28;20015;-58
2021/08/27 09:42:38;;;;;;;1.10;0.77;;;;;;;;;;5113912;28;20027;-58
2021/08/27 09:45:03;;;;;;;2.35;1.02;;;;;;;;;;5111818;28;20498;-57
2021/08/27 09:47:29;;;;;;;2.70;1.00;;;;;;;;;;5114540;28;20030;-58
2021/08/27 09:49:54;;;;;;;3.17;0.60;;;;;;;;;;5114658;28;20030;-56
2021/08/27 09:52:19;;;;;;;3.30;1.17;;;;;;;;;;5114292;28;20065;-58
2021/08/27 09:54:46;;;;;;;2.90;1.02;;;;;;;;;;5114268;28;20078;-56
2021/08/27 09:57:12;;;;;;;2.40;1.30;;;;;;;;;;5114715;28;20374;-59
2021/08/27 09:59:46;;;;;;;2.67;2.00;;;;;;;;;;5114152;28;20069;-58
2021/08/27 10:02:13;;;;;;;6.00;2.10;;;;;;;;;;5114076;28;20058;-59
2021/08/27 10:04:49;;;;;;;6.65;3.08;;;;;;;;;;5115092;28;20265;-57
2021/08/27 10:07:24;;;;;;;3.50;2.10;;;;;;;;;;5116322;27;20022;-57
2021/08/27 10:09:49;;;;;;;3.13;2.30;;;;;;;;;;5114115;28;20036;-57
2021/08/27 10:12:14;;;;;;;3.30;2.40;;;;;;;;;;5113517;28;20027;-56
2021/08/27 10:14:39;;;;;;;1.90;1.75;;;;;;;;;;5114311;28;20330;-57
2021/08/27 10:17:05;;;;;;;5.22;2.00;;;;;;;;;;5113038;28;20121;-57
2021/08/27 10:19:31;;;;;;;3.22;1.50;;;;;;;;;;5113749;28;20020;-58
2021/08/27 10:21:56;;;;;;;2.97;1.90;;;;;;;;;;5109043;28;20474;-57
2021/08/27 10:24:21;;;;;;;2.63;1.63;;;;;;;;;;5093634;28;20031;-56
2021/08/27 10:26:47;;;;;;;1.83;1.00;;;;;;;;;;5105119;28;20484;-57
2021/08/27 10:29:12;;;;;;;1.58;1.15;;;;;;;;;;5113108;28;20122;-59
2021/08/27 10:31:42;;;;;;;2.20;1.70;;;;;;;;;;5113274;28;20011;-60
2021/08/27 10:34:07;;;;;;;3.50;1.92;;;;;;;;;;5114104;28;20412;-57
2021/08/27 10:36:32;;;;;;;1.95;1.67;;;;;;;;;;5112647;28;20099;-56
2021/08/27 10:38:59;;;;;;;3.33;2.00;;;;;;;;;;5113259;28;20074;-57
2021/08/27 10:41:28;;;;;;;3.20;1.50;;;;;;;;;;5113333;28;20356;-59
2021/08/27 10:43:53;;;;;;;3.78;1.40;;;;;;;;;;5113978;28;20015;-57
2021/08/27 10:46:18;;;;;;;2.17;1.42;;;;;;;;;;5113209;28;20090;-57
2021/08/27 10:48:50;;;;;;;1.92;1.52;;;;;;;;;;5112947;28;20490;-57
2021/08/27 10:51:30;;;;;;;3.47;1.83;;;;;;;;;;5109194;28;20030;-58
2021/08/27 10:53:55;;;;;;;5.70;1.90;;;;;;;;;;5113310;28;20098;-58
2021/08/27 10:56:39;;;;;;;5.35;2.97;;;;;;;;;;5113590;28;20153;-56
2021/08/27 10:59:08;;;;;;;3.13;2.80;;;;;;;;;;5113169;28;20036;-58
2021/08/27 11:01:34;;;;;;;3.00;2.15;;;;;;;;;;5112966;28;20020;-58
2021/08/27 11:04:03;;;;;;;2.05;1.85;;;;;;;;;;5113377;28;20380;-58
2021/08/27 11:06:29;;;;;;;3.50;2.20;;;;;;;;;;5113257;28;20016;-57
2021/08/27 11:09:12;;;;;;;2.80;2.10;;;;;;;;;;5112516;28;20020;-56
2021/08/27 11:11:37;;;;;;;2.35;2.08;;;;;;;;;;5099509;28;20110;-57
2021/08/27 11:14:16;;;;;;;1.90;0.90;;;;;;;;;;5112915;28;20169;-58
2021/08/27 11:16:41;;;;;;;0.98;0.65;;;;;;;;;;5112660;28;20012;-57
2021/08/27 11:19:26;;;;;;;2.53;1.63;;;;;;;;;;5095013;28;20103;-57
2021/08/27 11:22:11;;;;;;;1.95;0.80;;;;;;;;;;5098295;28;20084;-58
2021/08/27 11:24:36;;;;;;;;;;;;;;;;;;5098980;28;20065;-55
2021/08/27 11:27:05;;;;;;;0.95;0.73;;;;;;;;;;5112889;28;19990;-58
2021/08/27 11:29:32;;;;;;;2.33;1.55;;;;;;;;;;5112899;28;20040;-56
2021/08/27 11:31:58;;;;;;;3.13;2.00;;;;;;;;;;5111608;28;20016;-58
2021/08/27 11:34:26;;;;;;;3.17;1.77;;;;;;;;;;5112960;28;20431;-56
2021/08/27 11:36:52;;;;;;;2.13;1.00;;;;;;;;;;5112741;28;20412;-57
2021/08/27 11:39:17;;;;;;;2.13;1.30;;;;;;;;;;5112432;28;20027;-58
2021/08/27 11:41:42;;;;;;;3.22;1.83;;;;;;;;;;5111904;28;20371;-57
2021/08/27 11:44:08;;;;;;;2.45;1.83;;;;;;;;;;5112255;28;20020;-57
2021/08/27 11:46:34;;;;;;;2.35;1.40;;;;;;;;;;5112103;28;20023;-59
2021/08/27 11:49:12;;;;;;;3.92;1.30;;;;;;;;;;5111977;28;20026;-56
2021/08/27 11:51:43;;;;;;;1.33;0.98;;;;;;;;;;5112095;28;20027;-57
2021/08/27 11:54:15;;;;;;;1.67;1.30;;;;;;;;;;5111434;28;20022;-59
2021/08/27 11:56:40;;;;;;;1.17;0.82;;;;;;;;;;5110647;28;20032;-58
2021/08/27 11:59:06;;;;;;;0.85;0.63;;;;;;;;;;5112434;28;20500;-58
2021/08/27 12:01:31;;;;;;;2.80;1.75;;;;;;;;;;5111621;28;20015;-59
2021/08/27 12:03:57;;;;;;;1.45;1.30;;;;;;;;;;5112528;28;20030;-57
2021/08/27 12:06:23;;;;;;;0.95;0.70;;;;;;;;;;5112446;28;20043;-57
2021/08/27 12:08:48;;;;;;;2.20;1.23;;;;;;;;;;5112164;28;20023;-59
2021/08/27 12:11:32;;;;;;;2.28;1.30;;;;;;;;;;5110894;28;20028;-57
2021/08/27 12:13:58;;;;;;;1.55;0.57;;;;;;;;;;5111900;28;20061;-58
2021/08/27 12:16:24;;;;;;;1.83;1.08;;;;;;;;;;5111023;28;20031;-57
2021/08/27 12:18:51;;;;;;;2.03;1.08;;;;;;;;;;5093247;28;20008;-58
2021/08/27 12:21:19;;;;;;;1.90;0.88;;;;;;;;;;5112094;28;20024;-58
2021/08/27 12:23:55;;;;;;;1.50;0.85;;;;;;;;;;5111563;28;20024;-57
2021/08/27 12:26:22;;;;;;;0.88;0.88;;;;;;;;;;5111773;28;20027;-57
2021/08/27 12:28:47;;;;;;;1.50;0.70;;;;;;;;;;5110062;28;20130;-56
2021/08/27 12:31:12;;;;;;;1.00;0.93;;;;;;;;;;5114767;28;20127;-56
2021/08/27 12:33:38;;;;;;;1.10;0.90;;;;;;;;;;5116222;28;20020;-57
2021/08/27 12:36:04;;;;;;;1.27;0.73;;;;;;;;;;5115532;28;20020;-57
2021/08/27 12:38:30;;;;;;;1.17;0.80;;;;;;;;;;5124897;27;20572;-57
2021/08/27 12:40:55;;;;;;;2.83;1.10;;;;;;;;;;5116738;27;20058;-58
2021/08/27 12:43:24;;;;;;;1.40;0.77;;;;;;;;;;5119013;27;20405;-58
2021/08/27 12:45:56;;;;;;;1.13;0.50;;;;;;;;;;5115832;28;20073;-57
2021/08/27 12:48:31;;;;;;;1.20;0.60;;;;;;;;;;5115135;28;20035;-57
2021/08/27 12:51:11;;;;;;;0.70;0.50;;;;;;;;;;5115279;28;20034;-58
2021/08/27 12:53:36;;;;;;;1.95;0.60;;;;;;;;;;5115443;28;20023;-56
2021/08/27 12:56:18;;;;;;;1.55;0.80;;;;;;;;;;5115936;28;20355;-58
2021/08/27 12:58:52;;;;;;;0.90;0.30;;;;;;;;;;5095271;28;20420;-57
2021/08/27 13:01:19;;;;;;;1.00;0.32;;;;;;;;;;5101398;28;20466;-58
2021/08/27 13:03:46;;;;;;;0.80;0.47;;;;;;;;;;5115417;28;20423;-59
2021/08/27 13:06:30;;;;;;;0.98;0.50;;;;;;;;;;5115611;28;20024;-58
2021/08/27 13:08:58;;;;;;;0.90;0.45;;;;;;;;;;5095271;28;20028;-57
2021/08/27 13:11:24;;;;;;;1.48;0.50;;;;;;;;;;5094684;28;20509;-58
2021/08/27 13:13:49;;;;;;;1.45;0.20;;;;;;;;;;5095309;28;20016;-57
2021/08/27 13:16:16;;;;;;;1.05;0.50;;;;;;;;;;5076486;28;20027;-55
2021/08/27 13:18:41;;;;;;;1.13;0.50;;;;;;;;;;5105386;28;20027;-57
2021/08/27 13:21:06;;;;;;;0.63;0.40;;;;;;;;;;5115022;28;20023;-58
2021/08/27 13:23:32;;;;;;;1.02;0.60;;;;;;;;;;5115343;28;20287;-59
2021/08/27 13:25:57;;;;;;;0.68;0.50;;;;;;;;;;5115237;28;20100;-59
2021/08/27 13:28:24;;;;;;;0.45;0.30;;;;;;;;;;5115358;28;20047;-58
2021/08/27 13:30:49;;;;;;;1.75;0.50;;;;;;;;;;5115014;28;20012;-58
2021/08/27 13:33:14;;;;;;;0.80;0.65;;;;;;;;;;5113173;28;20497;-57
2021/08/27 13:35:43;;;;;;;1.92;0.60;;;;;;;;;;5114617;28;20125;-57
2021/08/27 13:38:08;;;;;;;0.73;0.20;;;;;;;;;;5113593;28;20016;-58
2021/08/27 13:40:34;;;;;;;1.05;0.35;;;;;;;;;;5114052;28;20031;-58
2021/08/27 13:42:59;;;;;;;0.65;0.30;;;;;;;;;;5114260;28;20496;-59
2021/08/27 13:45:24;;;;;;;0.65;0.20;;;;;;;;;;5114704;28;20016;-58
2021/08/27 13:47:49;;;;;;;2.90;0.20;;;;;;;;;;5114497;28;20406;-58
2021/08/27 13:50:15;;;;;;;0.65;0.20;;;;;;;;;;5119662;27;20034;-57
2021/08/27 13:52:41;;;;;;;0.85;0.30;;;;;;;;;;5107646;28;20024;-58
2021/08/27 13:55:07;;;;;;;0.43;0.20;;;;;;;;;;5114478;28;20042;-56
2021/08/27 13:57:34;;;;;;;3.42;0.32;;;;;;;;;;5114118;28;20355;-57
2021/08/27 13:59:59;;;;;;;0.40;0.20;;;;;;;;;;5114177;28;20031;-56
2021/08/27 14:02:24;;;;;;;0.32;0.30;;;;;;;;;;5112626;28;20024;-58
2021/08/27 14:04:50;;;;;;;0.60;0.20;;;;;;;;;;5114758;28;20030;-58
2021/08/27 14:07:15;;;;;;;0.57;0.30;;;;;;;;;;5114197;28;20012;-56
2021/08/27 14:09:40;;;;;;;0.50;0.20;;;;;;;;;;5097655;28;20098;-59
2021/08/27 14:12:06;;;;;;;0.77;0.20;;;;;;;;;;5093451;28;20039;-58
2021/08/27 14:14:32;;;;;;;0.17;0.10;;;;;;;;;;5099434;28;20016;-56
2021/08/27 14:16:57;;;;;;;1.17;0.30;;;;;;;;;;5109939;28;20440;-60
2021/08/27 14:19:23;;;;;;;0.68;0.40;;;;;;;;;;5112713;28;20037;-58
2021/08/27 14:21:49;;;;;;;0.40;0.20;;;;;;;;;;5110554;27;20027;-58
2021/08/27 14:24:14;;;;;;;1.20;0.22;;;;;;;;;;5113017;28;20106;-58
2021/08/27 14:26:39;;;;;;;0.40;0.30;;;;;;;;;;5113513;28;20055;-58
2021/08/27 14:29:05;;;;;;;0.17;0.10;;;;;;;;;;5113921;28;20064;-58
2021/08/27 14:31:33;;;;;;;0.30;0.10;;;;;;;;;;5112442;28;20030;-56
2021/08/27 14:33:58;;;;;;;0.55;0.40;;;;;;;;;;5113155;28;20015;-59
2021/08/27 14:36:24;;;;;;;0.73;0.68;;;;;;;;;;5108157;28;20076;-57
2021/08/27 14:38:50;;;;;;;1.30;1.05;;;;;;;;;;5113869;28;20023;-58
2021/08/27 14:41:15;;;;;;;1.17;1.08;;;;;;;;;;5113008;27;20027;-59